sensor_id;sensor_type;location;lat;lon;timestamp;P1;durP1;ratioP1;P2;durP2;ratioP2
70467;SDS011;57934;51.532;7.684;2023-09-08T00:01:59;6.60;;;5.90;;
70467;SDS011;57934;51.532;7.684;2023-09-08T00:04:25;9.75;;;6.10;;
70467;SDS011;57934;51.532;7.684;2023-09-08T00:06:51;6.20;;;5.60;;
70467;SDS011;57934;51.532;7.684;2023-09-08T00:09:17;7.03;;;6.30;;
70467;SDS011;57934;51.532;7.684;2023-09-08T00:11:43;8.10;;;6.22;;
70467;SDS011;57934;51.532;7.684;2023-09-08T00:14:09;9.05;;;6.07;;
70467;SDS011;57934;51.532;7.684;2023-09-08T00:16:36;7.32;;;6.55;;
70467;SDS011;57934;51.532;7.684;2023-09-08T00:19:03;7.32;;;6.15;;
70467;SDS011;57934;51.532;7.684;2023-09-08T00:21:29;6.53;;;5.88;;
70467;SDS011;57934;51.532;7.684;2023-09-08T00:23:55;8.60;;;6.25;;
70467;SDS011;57934;51.532;7.684;2023-09-08T00:26:22;7.15;;;5.80;;
70467;SDS011;57934;51.532;7.684;2023-09-08T00:28:48;8.30;;;6.70;;
70467;SDS011;57934;51.532;7.684;2023-09-08T00:31:14;7.65;;;5.82;;
70467;SDS011;57934;51.532;7.684;2023-09-08T00:33:40;7.07;;;6.05;;
70467;SDS011;57934;51.532;7.684;2023-09-08T00:36:08;7.97;;;6.57;;
70467;SDS011;57934;51.532;7.684;2023-09-08T00:38:34;9.05;;;6.32;;
70467;SDS011;57934;51.532;7.684;2023-09-08T00:41:00;7.32;;;5.65;;
70467;SDS011;57934;51.532;7.684;2023-09-08T00:43:26;6.88;;;5.75;;
70467;SDS011;57934;51.532;7.684;2023-09-08T00:45:53;6.75;;;6.15;;
70467;SDS011;57934;51.532;7.684;2023-09-08T00:48:21;8.82;;;6.20;;
70467;SDS011;57934;51.532;7.684;2023-09-08T00:50:47;7.70;;;6.45;;
70467;SDS011;57934;51.532;7.684;2023-09-08T00:53:14;10.43;;;6.07;;
70467;SDS011;57934;51.532;7.684;2023-09-08T00:55:40;10.10;;;5.72;;
70467;SDS011;57934;51.532;7.684;2023-09-08T00:58:07;8.25;;;5.93;;
70467;SDS011;57934;51.532;7.684;2023-09-08T01:00:33;7.57;;;5.75;;
70467;SDS011;57934;51.532;7.684;2023-09-08T01:02:59;6.65;;;5.95;;
70467;SDS011;57934;51.532;7.684;2023-09-08T01:05:25;6.70;;;6.10;;
70467;SDS011;57934;51.532;7.684;2023-09-08T01:07:52;8.98;;;6.10;;
70467;SDS011;57934;51.532;7.684;2023-09-08T01:10:19;6.68;;;5.97;;
70467;SDS011;57934;51.532;7.684;2023-09-08T01:12:45;6.53;;;5.93;;
70467;SDS011;57934;51.532;7.684;2023-09-08T01:15:12;6.43;;;5.70;;
70467;SDS011;57934;51.532;7.684;2023-09-08T01:17:38;9.02;;;6.22;;
70467;SDS011;57934;51.532;7.684;2023-09-08T01:20:07;6.68;;;5.68;;
70467;SDS011;57934;51.532;7.684;2023-09-08T01:25:50;10.60;;;6.18;;
70467;SDS011;57934;51.532;7.684;2023-09-08T01:28:33;7.38;;;6.68;;
70467;SDS011;57934;51.532;7.684;2023-09-08T01:31:00;9.57;;;6.60;;
70467;SDS011;57934;51.532;7.684;2023-09-08T01:33:26;7.85;;;6.50;;
70467;SDS011;57934;51.532;7.684;2023-09-08T01:35:52;6.85;;;5.72;;
70467;SDS011;57934;51.532;7.684;2023-09-08T01:38:20;10.25;;;5.82;;
70467;SDS011;57934;51.532;7.684;2023-09-08T01:40:47;6.72;;;6.00;;
70467;SDS011;57934;51.532;7.684;2023-09-08T01:43:13;6.55;;;5.95;;
70467;SDS011;57934;51.532;7.684;2023-09-08T01:45:39;6.68;;;6.07;;
70467;SDS011;57934;51.532;7.684;2023-09-08T01:48:05;7.22;;;6.43;;
70467;SDS011;57934;51.532;7.684;2023-09-08T01:50:31;7.13;;;6.40;;
70467;SDS011;57934;51.532;7.684;2023-09-08T01:52:57;6.20;;;5.60;;
70467;SDS011;57934;51.532;7.684;2023-09-08T01:55:23;11.13;;;6.15;;
70467;SDS011;57934;51.532;7.684;2023-09-08T01:57:49;6.70;;;6.10;;
70467;SDS011;57934;51.532;7.684;2023-09-08T02:00:17;6.45;;;5.75;;
70467;SDS011;57934;51.532;7.684;2023-09-08T02:02:43;7.38;;;6.53;;
70467;SDS011;57934;51.532;7.684;2023-09-08T02:05:09;9.05;;;6.93;;
70467;SDS011;57934;51.532;7.684;2023-09-08T02:07:35;7.35;;;6.57;;
70467;SDS011;57934;51.532;7.684;2023-09-08T02:10:01;8.32;;;6.30;;
70467;SDS011;57934;51.532;7.684;2023-09-08T02:12:27;6.93;;;6.22;;
70467;SDS011;57934;51.532;7.684;2023-09-08T02:14:54;7.03;;;6.32;;
70467;SDS011;57934;51.532;7.684;2023-09-08T02:17:21;7.03;;;6.32;;
70467;SDS011;57934;51.532;7.684;2023-09-08T02:19:47;10.50;;;7.03;;
70467;SDS011;57934;51.532;7.684;2023-09-08T02:22:13;7.03;;;6.32;;
70467;SDS011;57934;51.532;7.684;2023-09-08T02:24:39;7.18;;;6.40;;
70467;SDS011;57934;51.532;7.684;2023-09-08T02:27:06;8.10;;;6.53;;
70467;SDS011;57934;51.532;7.684;2023-09-08T02:29:32;7.82;;;6.30;;
70467;SDS011;57934;51.532;7.684;2023-09-08T02:31:58;6.88;;;6.20;;
70467;SDS011;57934;51.532;7.684;2023-09-08T02:34:24;8.10;;;6.75;;
70467;SDS011;57934;51.532;7.684;2023-09-08T02:36:50;8.85;;;6.90;;
70467;SDS011;57934;51.532;7.684;2023-09-08T02:39:20;7.80;;;6.45;;
70467;SDS011;57934;51.532;7.684;2023-09-08T02:41:49;10.80;;;6.38;;
70467;SDS011;57934;51.532;7.684;2023-09-08T02:44:15;10.25;;;7.18;;
70467;SDS011;57934;51.532;7.684;2023-09-08T02:46:41;7.10;;;6.40;;
70467;SDS011;57934;51.532;7.684;2023-09-08T02:49:07;6.18;;;5.53;;
70467;SDS011;57934;51.532;7.684;2023-09-08T02:51:33;8.32;;;5.80;;
70467;SDS011;57934;51.532;7.684;2023-09-08T02:53:59;8.75;;;6.40;;
70467;SDS011;57934;51.532;7.684;2023-09-08T02:56:25;7.82;;;7.03;;
70467;SDS011;57934;51.532;7.684;2023-09-08T02:58:52;6.82;;;6.20;;
70467;SDS011;57934;51.532;7.684;2023-09-08T03:01:18;8.07;;;6.38;;
70467;SDS011;57934;51.532;7.684;2023-09-08T03:03:47;7.05;;;6.10;;
70467;SDS011;57934;51.532;7.684;2023-09-08T03:06:14;8.00;;;6.28;;
70467;SDS011;57934;51.532;7.684;2023-09-08T03:08:41;8.75;;;5.95;;
70467;SDS011;57934;51.532;7.684;2023-09-08T03:11:07;7.93;;;7.13;;
70467;SDS011;57934;51.532;7.684;2023-09-08T03:13:34;6.78;;;5.90;;
70467;SDS011;57934;51.532;7.684;2023-09-08T03:16:04;9.13;;;6.25;;
70467;SDS011;57934;51.532;7.684;2023-09-08T03:18:32;9.75;;;6.38;;
70467;SDS011;57934;51.532;7.684;2023-09-08T03:21:01;9.38;;;6.28;;
70467;SDS011;57934;51.532;7.684;2023-09-08T03:23:29;6.95;;;6.32;;
70467;SDS011;57934;51.532;7.684;2023-09-08T03:25:55;8.25;;;6.45;;
70467;SDS011;57934;51.532;7.684;2023-09-08T03:28:21;8.70;;;5.82;;
70467;SDS011;57934;51.532;7.684;2023-09-08T03:30:47;7.93;;;6.05;;
70467;SDS011;57934;51.532;7.684;2023-09-08T03:33:13;6.40;;;5.80;;
70467;SDS011;57934;51.532;7.684;2023-09-08T03:35:39;6.40;;;5.80;;
70467;SDS011;57934;51.532;7.684;2023-09-08T03:38:05;8.93;;;5.82;;
70467;SDS011;57934;51.532;7.684;2023-09-08T03:40:32;8.85;;;6.20;;
70467;SDS011;57934;51.532;7.684;2023-09-08T03:42:58;6.55;;;5.78;;
70467;SDS011;57934;51.532;7.684;2023-09-08T03:45:24;5.88;;;5.38;;
70467;SDS011;57934;51.532;7.684;2023-09-08T03:47:50;6.18;;;5.55;;
70467;SDS011;57934;51.532;7.684;2023-09-08T03:50:17;6.00;;;5.30;;
70467;SDS011;57934;51.532;7.684;2023-09-08T03:52:43;6.60;;;5.47;;
70467;SDS011;57934;51.532;7.684;2023-09-08T03:55:09;11.35;;;5.50;;
70467;SDS011;57934;51.532;7.684;2023-09-08T03:57:35;7.55;;;5.78;;
70467;SDS011;57934;51.532;7.684;2023-09-08T04:00:01;5.55;;;5.00;;
70467;SDS011;57934;51.532;7.684;2023-09-08T04:02:39;6.75;;;5.60;;
70467;SDS011;57934;51.532;7.684;2023-09-08T04:05:06;6.72;;;5.40;;
70467;SDS011;57934;51.532;7.684;2023-09-08T04:07:32;6.45;;;5.68;;
70467;SDS011;57934;51.532;7.684;2023-09-08T04:09:58;7.72;;;5.28;;
70467;SDS011;57934;51.532;7.684;2023-09-08T04:12:24;9.43;;;6.82;;
70467;SDS011;57934;51.532;7.684;2023-09-08T04:14:51;5.97;;;5.40;;
70467;SDS011;57934;51.532;7.684;2023-09-08T04:17:17;7.35;;;5.97;;
70467;SDS011;57934;51.532;7.684;2023-09-08T04:19:44;7.85;;;5.80;;
70467;SDS011;57934;51.532;7.684;2023-09-08T04:22:10;6.88;;;5.43;;
70467;SDS011;57934;51.532;7.684;2023-09-08T04:24:37;6.70;;;5.70;;
70467;SDS011;57934;51.532;7.684;2023-09-08T04:27:03;7.15;;;4.93;;
70467;SDS011;57934;51.532;7.684;2023-09-08T04:29:30;8.52;;;5.35;;
70467;SDS011;57934;51.532;7.684;2023-09-08T04:31:56;8.35;;;5.40;;
70467;SDS011;57934;51.532;7.684;2023-09-08T04:34:22;10.73;;;5.50;;
70467;SDS011;57934;51.532;7.684;2023-09-08T04:36:48;8.05;;;5.68;;
70467;SDS011;57934;51.532;7.684;2023-09-08T04:39:14;7.88;;;5.68;;
70467;SDS011;57934;51.532;7.684;2023-09-08T04:41:41;9.63;;;5.47;;
70467;SDS011;57934;51.532;7.684;2023-09-08T04:44:07;9.05;;;5.35;;
70467;SDS011;57934;51.532;7.684;2023-09-08T04:46:34;5.38;;;4.88;;
70467;SDS011;57934;51.532;7.684;2023-09-08T04:49:01;7.57;;;5.45;;
70467;SDS011;57934;51.532;7.684;2023-09-08T04:51:27;6.40;;;5.80;;
70467;SDS011;57934;51.532;7.684;2023-09-08T04:53:53;7.32;;;5.13;;
70467;SDS011;57934;51.532;7.684;2023-09-08T04:56:19;7.93;;;4.95;;
70467;SDS011;57934;51.532;7.684;2023-09-08T04:58:45;7.00;;;5.32;;
70467;SDS011;57934;51.532;7.684;2023-09-08T05:01:13;7.05;;;5.72;;
70467;SDS011;57934;51.532;7.684;2023-09-08T05:03:39;7.70;;;5.80;;
70467;SDS011;57934;51.532;7.684;2023-09-08T05:06:07;9.48;;;5.38;;
70467;SDS011;57934;51.532;7.684;2023-09-08T05:08:33;5.32;;;4.82;;
70467;SDS011;57934;51.532;7.684;2023-09-08T05:10:59;7.70;;;4.60;;
70467;SDS011;57934;51.532;7.684;2023-09-08T05:13:25;7.00;;;4.78;;
70467;SDS011;57934;51.532;7.684;2023-09-08T05:15:53;9.07;;;4.63;;
70467;SDS011;57934;51.532;7.684;2023-09-08T05:18:26;8.00;;;4.70;;
70467;SDS011;57934;51.532;7.684;2023-09-08T05:20:54;5.85;;;4.97;;
70467;SDS011;57934;51.532;7.684;2023-09-08T05:23:20;6.13;;;4.97;;
70467;SDS011;57934;51.532;7.684;2023-09-08T05:25:46;6.63;;;4.85;;
70467;SDS011;57934;51.532;7.684;2023-09-08T05:28:12;7.03;;;4.68;;
70467;SDS011;57934;51.532;7.684;2023-09-08T05:30:38;6.90;;;5.18;;
70467;SDS011;57934;51.532;7.684;2023-09-08T05:33:05;8.25;;;5.07;;
70467;SDS011;57934;51.532;7.684;2023-09-08T05:35:32;8.90;;;5.75;;
70467;SDS011;57934;51.532;7.684;2023-09-08T05:37:59;6.55;;;4.75;;
70467;SDS011;57934;51.532;7.684;2023-09-08T05:40:26;8.27;;;5.25;;
70467;SDS011;57934;51.532;7.684;2023-09-08T05:42:52;9.27;;;5.05;;
70467;SDS011;57934;51.532;7.684;2023-09-08T05:45:19;6.93;;;5.97;;
70467;SDS011;57934;51.532;7.684;2023-09-08T05:47:45;6.32;;;5.20;;
70467;SDS011;57934;51.532;7.684;2023-09-08T05:50:11;9.75;;;5.57;;
70467;SDS011;57934;51.532;7.684;2023-09-08T05:52:37;5.82;;;5.32;;
70467;SDS011;57934;51.532;7.684;2023-09-08T05:55:04;6.47;;;5.85;;
70467;SDS011;57934;51.532;7.684;2023-09-08T05:57:31;9.45;;;5.55;;
70467;SDS011;57934;51.532;7.684;2023-09-08T05:59:58;5.78;;;5.03;;
70467;SDS011;57934;51.532;7.684;2023-09-08T06:02:24;5.78;;;5.20;;
70467;SDS011;57934;51.532;7.684;2023-09-08T06:04:51;10.05;;;5.63;;
70467;SDS011;57934;51.532;7.684;2023-09-08T06:07:17;7.93;;;4.88;;
70467;SDS011;57934;51.532;7.684;2023-09-08T06:09:43;5.95;;;4.93;;
70467;SDS011;57934;51.532;7.684;2023-09-08T06:12:10;12.05;;;5.35;;
70467;SDS011;57934;51.532;7.684;2023-09-08T06:14:36;7.18;;;5.13;;
70467;SDS011;57934;51.532;7.684;2023-09-08T06:17:02;5.65;;;4.90;;
70467;SDS011;57934;51.532;7.684;2023-09-08T06:19:29;6.45;;;4.82;;
70467;SDS011;57934;51.532;7.684;2023-09-08T06:21:55;6.07;;;4.50;;
70467;SDS011;57934;51.532;7.684;2023-09-08T06:24:22;5.63;;;4.75;;
70467;SDS011;57934;51.532;7.684;2023-09-08T06:26:48;5.57;;;4.57;;
70467;SDS011;57934;51.532;7.684;2023-09-08T06:29:15;5.35;;;4.85;;
70467;SDS011;57934;51.532;7.684;2023-09-08T06:31:41;7.07;;;4.68;;
70467;SDS011;57934;51.532;7.684;2023-09-08T06:34:07;6.88;;;4.88;;
70467;SDS011;57934;51.532;7.684;2023-09-08T06:36:34;6.22;;;4.53;;
70467;SDS011;57934;51.532;7.684;2023-09-08T06:39:00;8.15;;;4.50;;
70467;SDS011;57934;51.532;7.684;2023-09-08T06:41:26;5.13;;;4.63;;
70467;SDS011;57934;51.532;7.684;2023-09-08T06:43:55;10.00;;;4.55;;
70467;SDS011;57934;51.532;7.684;2023-09-08T06:46:22;5.45;;;4.28;;
70467;SDS011;57934;51.532;7.684;2023-09-08T06:48:48;6.70;;;4.28;;
70467;SDS011;57934;51.532;7.684;2023-09-08T06:51:15;8.32;;;4.78;;
70467;SDS011;57934;51.532;7.684;2023-09-08T06:53:42;5.65;;;4.53;;
70467;SDS011;57934;51.532;7.684;2023-09-08T06:56:09;6.20;;;4.68;;
70467;SDS011;57934;51.532;7.684;2023-09-08T06:58:35;5.57;;;4.78;;
70467;SDS011;57934;51.532;7.684;2023-09-08T07:01:02;7.35;;;4.88;;
70467;SDS011;57934;51.532;7.684;2023-09-08T07:03:29;5.57;;;4.65;;
70467;SDS011;57934;51.532;7.684;2023-09-08T07:06:02;7.68;;;4.88;;
70467;SDS011;57934;51.532;7.684;2023-09-08T07:08:29;8.68;;;4.85;;
70467;SDS011;57934;51.532;7.684;2023-09-08T07:10:56;7.40;;;4.50;;
70467;SDS011;57934;51.532;7.684;2023-09-08T07:13:22;6.57;;;4.70;;
70467;SDS011;57934;51.532;7.684;2023-09-08T07:15:48;9.68;;;4.80;;
70467;SDS011;57934;51.532;7.684;2023-09-08T07:18:14;5.40;;;4.82;;
70467;SDS011;57934;51.532;7.684;2023-09-08T07:20:40;6.07;;;4.65;;
70467;SDS011;57934;51.532;7.684;2023-09-08T07:23:07;5.50;;;4.72;;
70467;SDS011;57934;51.532;7.684;2023-09-08T07:25:33;5.35;;;4.15;;
70467;SDS011;57934;51.532;7.684;2023-09-08T07:28:00;5.63;;;4.25;;
70467;SDS011;57934;51.532;7.684;2023-09-08T07:30:33;4.45;;;4.05;;
70467;SDS011;57934;51.532;7.684;2023-09-08T07:33:34;6.22;;;3.85;;
70467;SDS011;57934;51.532;7.684;2023-09-08T07:36:53;5.97;;;4.30;;
70467;SDS011;57934;51.532;7.684;2023-09-08T07:39:19;7.20;;;4.40;;
70467;SDS011;57934;51.532;7.684;2023-09-08T07:41:45;4.57;;;4.18;;
70467;SDS011;57934;51.532;7.684;2023-09-08T07:44:12;7.15;;;3.92;;
70467;SDS011;57934;51.532;7.684;2023-09-08T07:46:38;5.72;;;4.75;;
70467;SDS011;57934;51.532;7.684;2023-09-08T07:49:05;9.40;;;4.82;;
70467;SDS011;57934;51.532;7.684;2023-09-08T07:51:31;5.68;;;3.88;;
70467;SDS011;57934;51.532;7.684;2023-09-08T07:53:58;5.57;;;4.28;;
70467;SDS011;57934;51.532;7.684;2023-09-08T07:56:25;6.85;;;4.30;;
70467;SDS011;57934;51.532;7.684;2023-09-08T07:58:51;6.75;;;4.47;;
70467;SDS011;57934;51.532;7.684;2023-09-08T08:01:17;4.90;;;4.07;;
70467;SDS011;57934;51.532;7.684;2023-09-08T08:03:44;8.73;;;4.40;;
70467;SDS011;57934;51.532;7.684;2023-09-08T08:06:10;4.60;;;4.00;;
70467;SDS011;57934;51.532;7.684;2023-09-08T08:08:37;7.63;;;4.70;;
70467;SDS011;57934;51.532;7.684;2023-09-08T08:11:11;5.03;;;3.97;;
70467;SDS011;57934;51.532;7.684;2023-09-08T08:13:41;4.85;;;4.32;;
70467;SDS011;57934;51.532;7.684;2023-09-08T08:16:07;6.47;;;3.97;;
70467;SDS011;57934;51.532;7.684;2023-09-08T08:18:33;4.25;;;3.92;;
70467;SDS011;57934;51.532;7.684;2023-09-08T08:20:59;7.75;;;4.35;;
70467;SDS011;57934;51.532;7.684;2023-09-08T08:23:29;5.80;;;4.03;;
70467;SDS011;57934;51.532;7.684;2023-09-08T08:25:56;4.10;;;3.80;;
70467;SDS011;57934;51.532;7.684;2023-09-08T08:28:23;6.97;;;4.20;;
70467;SDS011;57934;51.532;7.684;2023-09-08T08:30:50;5.85;;;4.45;;
70467;SDS011;57934;51.532;7.684;2023-09-08T08:33:17;8.40;;;4.20;;
70467;SDS011;57934;51.532;7.684;2023-09-08T08:35:49;4.90;;;4.05;;
70467;SDS011;57934;51.532;7.684;2023-09-08T08:38:16;6.13;;;4.40;;
70467;SDS011;57934;51.532;7.684;2023-09-08T08:40:42;7.10;;;4.25;;
70467;SDS011;57934;51.532;7.684;2023-09-08T08:43:08;11.18;;;4.30;;
70467;SDS011;57934;51.532;7.684;2023-09-08T08:45:34;5.78;;;4.30;;
70467;SDS011;57934;51.532;7.684;2023-09-08T08:48:04;4.65;;;4.18;;
70467;SDS011;57934;51.532;7.684;2023-09-08T08:50:34;5.47;;;4.22;;
70467;SDS011;57934;51.532;7.684;2023-09-08T08:53:01;5.25;;;4.38;;
70467;SDS011;57934;51.532;7.684;2023-09-08T08:55:29;8.20;;;4.25;;
70467;SDS011;57934;51.532;7.684;2023-09-08T08:58:05;12.40;;;5.13;;
70467;SDS011;57934;51.532;7.684;2023-09-08T09:00:35;9.10;;;4.45;;
70467;SDS011;57934;51.532;7.684;2023-09-08T09:03:05;7.72;;;4.13;;
70467;SDS011;57934;51.532;7.684;2023-09-08T09:05:32;6.88;;;4.10;;
70467;SDS011;57934;51.532;7.684;2023-09-08T09:08:02;4.40;;;4.00;;
70467;SDS011;57934;51.532;7.684;2023-09-08T09:10:31;8.00;;;4.40;;
70467;SDS011;57934;51.532;7.684;2023-09-08T09:12:57;5.40;;;4.50;;
70467;SDS011;57934;51.532;7.684;2023-09-08T09:15:30;6.90;;;4.47;;
70467;SDS011;57934;51.532;7.684;2023-09-08T09:18:02;9.35;;;4.50;;
70467;SDS011;57934;51.532;7.684;2023-09-08T09:20:33;5.57;;;4.15;;
70467;SDS011;57934;51.532;7.684;2023-09-08T09:22:59;5.88;;;4.13;;
70467;SDS011;57934;51.532;7.684;2023-09-08T09:25:27;5.35;;;3.90;;
70467;SDS011;57934;51.532;7.684;2023-09-08T09:27:55;4.40;;;4.00;;
70467;SDS011;57934;51.532;7.684;2023-09-08T09:30:24;4.22;;;3.83;;
70467;SDS011;57934;51.532;7.684;2023-09-08T09:33:01;5.13;;;4.13;;
70467;SDS011;57934;51.532;7.684;2023-09-08T09:35:45;4.75;;;4.25;;
70467;SDS011;57934;51.532;7.684;2023-09-08T09:38:13;5.38;;;4.03;;
70467;SDS011;57934;51.532;7.684;2023-09-08T09:40:40;7.45;;;4.32;;
70467;SDS011;57934;51.532;7.684;2023-09-08T09:43:07;8.45;;;4.20;;
70467;SDS011;57934;51.532;7.684;2023-09-08T09:45:34;4.88;;;3.90;;
70467;SDS011;57934;51.532;7.684;2023-09-08T09:48:05;4.22;;;3.50;;
70467;SDS011;57934;51.532;7.684;2023-09-08T09:50:33;5.85;;;4.30;;
70467;SDS011;57934;51.532;7.684;2023-09-08T09:53:07;3.97;;;3.67;;
70467;SDS011;57934;51.532;7.684;2023-09-08T09:55:39;8.40;;;4.10;;
70467;SDS011;57934;51.532;7.684;2023-09-08T09:58:09;4.38;;;3.97;;
70467;SDS011;57934;51.532;7.684;2023-09-08T10:00:36;5.20;;;4.22;;
70467;SDS011;57934;51.532;7.684;2023-09-08T10:03:04;7.57;;;4.15;;
70467;SDS011;57934;51.532;7.684;2023-09-08T10:05:30;5.07;;;3.70;;
70467;SDS011;57934;51.532;7.684;2023-09-08T10:07:56;4.10;;;3.80;;
70467;SDS011;57934;51.532;7.684;2023-09-08T10:10:23;8.38;;;4.30;;
70467;SDS011;57934;51.532;7.684;2023-09-08T10:12:53;6.35;;;4.10;;
70467;SDS011;57934;51.532;7.684;2023-09-08T10:15:21;4.68;;;3.97;;
70467;SDS011;57934;51.532;7.684;2023-09-08T10:17:52;9.20;;;4.10;;
70467;SDS011;57934;51.532;7.684;2023-09-08T10:20:23;4.32;;;3.88;;
70467;SDS011;57934;51.532;7.684;2023-09-08T10:22:56;3.95;;;3.67;;
70467;SDS011;57934;51.532;7.684;2023-09-08T10:25:46;5.07;;;3.72;;
70467;SDS011;57934;51.532;7.684;2023-09-08T10:28:19;4.78;;;3.75;;
70467;SDS011;57934;51.532;7.684;2023-09-08T10:30:47;4.55;;;4.13;;
70467;SDS011;57934;51.532;7.684;2023-09-08T10:33:13;5.00;;;4.38;;
70467;SDS011;57934;51.532;7.684;2023-09-08T10:35:42;7.60;;;3.92;;
70467;SDS011;57934;51.532;7.684;2023-09-08T10:38:24;8.13;;;3.80;;
70467;SDS011;57934;51.532;7.684;2023-09-08T10:40:53;4.20;;;3.88;;
70467;SDS011;57934;51.532;7.684;2023-09-08T10:43:39;4.60;;;3.80;;
70467;SDS011;57934;51.532;7.684;2023-09-08T10:46:10;7.22;;;4.40;;
70467;SDS011;57934;51.532;7.684;2023-09-08T10:48:42;4.18;;;3.88;;
70467;SDS011;57934;51.532;7.684;2023-09-08T10:51:13;3.80;;;3.50;;
70467;SDS011;57934;51.532;7.684;2023-09-08T10:53:40;4.50;;;4.10;;
70467;SDS011;57934;51.532;7.684;2023-09-08T10:56:06;4.43;;;3.30;;
70467;SDS011;57934;51.532;7.684;2023-09-08T10:58:33;4.38;;;3.85;;
70467;SDS011;57934;51.532;7.684;2023-09-08T11:01:13;4.38;;;3.47;;
70467;SDS011;57934;51.532;7.684;2023-09-08T11:06:15;4.93;;;4.00;;
70467;SDS011;57934;51.532;7.684;2023-09-08T11:08:43;6.63;;;3.50;;
70467;SDS011;57934;51.532;7.684;2023-09-08T11:11:11;7.30;;;3.50;;
70467;SDS011;57934;51.532;7.684;2023-09-08T11:13:38;4.38;;;3.97;;
70467;SDS011;57934;51.532;7.684;2023-09-08T11:16:11;4.22;;;3.92;;
70467;SDS011;57934;51.532;7.684;2023-09-08T11:18:39;3.95;;;3.65;;
70467;SDS011;57934;51.532;7.684;2023-09-08T11:21:07;4.20;;;3.90;;
70467;SDS011;57934;51.532;7.684;2023-09-08T11:23:34;4.60;;;4.20;;
70467;SDS011;57934;51.532;7.684;2023-09-08T11:26:01;5.78;;;4.25;;
70467;SDS011;57934;51.532;7.684;2023-09-08T11:28:27;3.80;;;3.50;;
70467;SDS011;57934;51.532;7.684;2023-09-08T11:30:54;4.38;;;3.92;;
70467;SDS011;57934;51.532;7.684;2023-09-08T11:33:22;4.00;;;3.70;;
70467;SDS011;57934;51.532;7.684;2023-09-08T11:35:52;6.97;;;4.00;;
70467;SDS011;57934;51.532;7.684;2023-09-08T11:38:25;4.10;;;3.67;;
70467;SDS011;57934;51.532;7.684;2023-09-08T11:40:56;5.18;;;4.13;;
70467;SDS011;57934;51.532;7.684;2023-09-08T11:43:23;8.50;;;3.90;;
70467;SDS011;57934;51.532;7.684;2023-09-08T11:45:51;4.05;;;3.75;;
70467;SDS011;57934;51.532;7.684;2023-09-08T11:48:17;5.20;;;4.22;;
70467;SDS011;57934;51.532;7.684;2023-09-08T11:50:45;4.35;;;3.95;;
70467;SDS011;57934;51.532;7.684;2023-09-08T11:53:11;4.35;;;3.70;;
70467;SDS011;57934;51.532;7.684;2023-09-08T11:55:37;4.90;;;3.90;;
70467;SDS011;57934;51.532;7.684;2023-09-08T11:58:03;4.20;;;3.70;;
70467;SDS011;57934;51.532;7.684;2023-09-08T12:00:30;6.13;;;4.10;;
70467;SDS011;57934;51.532;7.684;2023-09-08T12:03:10;4.82;;;3.90;;
70467;SDS011;57934;51.532;7.684;2023-09-08T12:05:38;3.90;;;3.47;;
70467;SDS011;57934;51.532;7.684;2023-09-08T12:08:05;5.35;;;3.70;;
70467;SDS011;57934;51.532;7.684;2023-09-08T12:10:41;4.75;;;3.58;;
70467;SDS011;57934;51.532;7.684;2023-09-08T12:13:08;5.97;;;3.78;;
70467;SDS011;57934;51.532;7.684;2023-09-08T12:15:39;6.07;;;3.85;;
70467;SDS011;57934;51.532;7.684;2023-09-08T12:18:07;4.65;;;3.72;;
70467;SDS011;57934;51.532;7.684;2023-09-08T12:20:35;6.03;;;3.90;;
70467;SDS011;57934;51.532;7.684;2023-09-08T12:23:03;4.45;;;3.95;;
70467;SDS011;57934;51.532;7.684;2023-09-08T12:28:10;7.28;;;3.92;;
70467;SDS011;57934;51.532;7.684;2023-09-08T12:30:36;5.63;;;4.00;;
70467;SDS011;57934;51.532;7.684;2023-09-08T12:33:02;4.20;;;3.80;;
70467;SDS011;57934;51.532;7.684;2023-09-08T12:35:29;4.70;;;3.72;;
70467;SDS011;57934;51.532;7.684;2023-09-08T12:38:01;4.45;;;4.05;;
70467;SDS011;57934;51.532;7.684;2023-09-08T12:40:30;4.03;;;3.63;;
70467;SDS011;57934;51.532;7.684;2023-09-08T12:42:59;4.60;;;3.92;;
70467;SDS011;57934;51.532;7.684;2023-09-08T12:45:25;4.57;;;4.07;;
70467;SDS011;57934;51.532;7.684;2023-09-08T12:47:52;6.70;;;4.00;;
70467;SDS011;57934;51.532;7.684;2023-09-08T12:50:20;4.75;;;4.15;;
70467;SDS011;57934;51.532;7.684;2023-09-08T12:52:46;7.80;;;4.00;;
70467;SDS011;57934;51.532;7.684;2023-09-08T12:55:13;4.70;;;4.22;;
70467;SDS011;57934;51.532;7.684;2023-09-08T12:57:39;4.00;;;3.60;;
70467;SDS011;57934;51.532;7.684;2023-09-08T13:00:05;4.63;;;4.05;;
70467;SDS011;57934;51.532;7.684;2023-09-08T13:02:33;10.10;;;3.90;;
70467;SDS011;57934;51.532;7.684;2023-09-08T13:05:00;5.22;;;4.00;;
70467;SDS011;57934;51.532;7.684;2023-09-08T13:07:26;7.38;;;3.60;;
70467;SDS011;57934;51.532;7.684;2023-09-08T13:09:53;5.57;;;3.60;;
70467;SDS011;57934;51.532;7.684;2023-09-08T13:12:19;6.20;;;3.90;;
70467;SDS011;57934;51.532;7.684;2023-09-08T13:14:49;5.45;;;3.40;;
70467;SDS011;57934;51.532;7.684;2023-09-08T13:17:26;4.20;;;3.80;;
70467;SDS011;57934;51.532;7.684;2023-09-08T13:19:53;5.80;;;4.88;;
70467;SDS011;57934;51.532;7.684;2023-09-08T13:22:20;4.35;;;3.92;;
70467;SDS011;57934;51.532;7.684;2023-09-08T13:24:46;5.07;;;4.03;;
70467;SDS011;57934;51.532;7.684;2023-09-08T13:27:12;4.68;;;3.90;;
70467;SDS011;57934;51.532;7.684;2023-09-08T13:29:41;6.18;;;3.85;;
70467;SDS011;57934;51.532;7.684;2023-09-08T13:32:07;7.22;;;3.40;;
70467;SDS011;57934;51.532;7.684;2023-09-08T13:34:33;4.85;;;3.50;;
70467;SDS011;57934;51.532;7.684;2023-09-08T13:37:00;4.07;;;3.67;;
70467;SDS011;57934;51.532;7.684;2023-09-08T13:39:28;8.30;;;3.80;;
70467;SDS011;57934;51.532;7.684;2023-09-08T13:41:54;5.38;;;4.20;;
70467;SDS011;57934;51.532;7.684;2023-09-08T13:44:22;5.10;;;3.88;;
70467;SDS011;57934;51.532;7.684;2023-09-08T13:46:49;5.55;;;4.32;;
70467;SDS011;57934;51.532;7.684;2023-09-08T13:49:16;4.20;;;3.80;;
70467;SDS011;57934;51.532;7.684;2023-09-08T13:51:44;4.57;;;4.18;;
70467;SDS011;57934;51.532;7.684;2023-09-08T13:54:11;5.43;;;4.05;;
70467;SDS011;57934;51.532;7.684;2023-09-08T13:56:39;4.72;;;3.78;;
70467;SDS011;57934;51.532;7.684;2023-09-08T13:59:06;5.70;;;3.85;;
70467;SDS011;57934;51.532;7.684;2023-09-08T14:01:33;8.30;;;4.55;;
70467;SDS011;57934;51.532;7.684;2023-09-08T14:04:01;6.35;;;4.15;;
70467;SDS011;57934;51.532;7.684;2023-09-08T14:06:28;4.35;;;4.00;;
70467;SDS011;57934;51.532;7.684;2023-09-08T14:08:54;6.47;;;3.90;;
70467;SDS011;57934;51.532;7.684;2023-09-08T14:11:21;4.50;;;4.10;;
70467;SDS011;57934;51.532;7.684;2023-09-08T14:13:48;6.03;;;4.43;;
70467;SDS011;57934;51.532;7.684;2023-09-08T14:16:14;6.20;;;4.35;;
70467;SDS011;57934;51.532;7.684;2023-09-08T14:18:40;6.47;;;4.43;;
70467;SDS011;57934;51.532;7.684;2023-09-08T14:21:06;6.55;;;4.30;;
70467;SDS011;57934;51.532;7.684;2023-09-08T14:23:33;4.57;;;3.83;;
70467;SDS011;57934;51.532;7.684;2023-09-08T14:26:06;7.53;;;4.53;;
70467;SDS011;57934;51.532;7.684;2023-09-08T14:28:34;4.38;;;3.97;;
70467;SDS011;57934;51.532;7.684;2023-09-08T14:31:01;6.38;;;4.28;;
70467;SDS011;57934;51.532;7.684;2023-09-08T14:33:27;4.25;;;3.95;;
70467;SDS011;57934;51.532;7.684;2023-09-08T14:35:55;6.15;;;4.00;;
70467;SDS011;57934;51.532;7.684;2023-09-08T14:38:22;8.18;;;4.38;;
70467;SDS011;57934;51.532;7.684;2023-09-08T14:41:01;5.80;;;4.00;;
70467;SDS011;57934;51.532;7.684;2023-09-08T14:43:28;4.72;;;4.10;;
70467;SDS011;57934;51.532;7.684;2023-09-08T14:45:55;4.85;;;4.07;;
70467;SDS011;57934;51.532;7.684;2023-09-08T14:48:24;9.70;;;4.22;;
70467;SDS011;57934;51.532;7.684;2023-09-08T14:50:50;6.65;;;4.18;;
70467;SDS011;57934;51.532;7.684;2023-09-08T14:53:17;5.63;;;4.03;;
70467;SDS011;57934;51.532;7.684;2023-09-08T14:55:43;4.82;;;4.38;;
70467;SDS011;57934;51.532;7.684;2023-09-08T14:58:10;5.53;;;4.18;;
70467;SDS011;57934;51.532;7.684;2023-09-08T15:00:40;8.82;;;4.32;;